Houston, Texas
Traffic Map
Current Weather Conditions
Houston, Texas
Few Clouds
Few Clouds
81°
Feels Like: 86°
Wind Chill: 81° Ceiling: Unl
Heat Index: 86° Visibility: 9mi
Dew Point: 75° Wind: 6mph
Humidity: 84% Direction: 260° (W)
Pressure: 30.03in Gusts: 0mph
Raw Report DataKMCJ 251355Z AUTO 26005KT 9SM FEW038 27/24 A3003 RMK AO1
Traffic Incident Summary
Active as of:
Severity:
Category:
InformationThere was an issue retrieving the traffic information for this location. Please try a different location or try again shortly.
Advertisements
Track Severe Weather on mobile